createdAt,value
2022-12-18T00:00:32.148Z,77.92
2022-12-18T00:03:01.039Z,77.89
2022-12-18T00:05:30.734Z,77.86
2022-12-18T00:07:59.683Z,77.85
2022-12-18T00:10:31.423Z,77.67
2022-12-18T00:13:02.567Z,77.57
2022-12-18T00:15:39.705Z,77.44
2022-12-18T00:18:08.671Z,77.47
2022-12-18T00:20:41.853Z,77.22
2022-12-18T00:23:10.756Z,77.66
2022-12-18T00:25:40.067Z,77.41
2022-12-18T00:28:09.055Z,77.87
2022-12-18T00:30:37.865Z,77.58
2022-12-18T00:33:06.676Z,77.98
2022-12-18T00:35:36.026Z,77.33
2022-12-18T00:38:05.192Z,77.73
2022-12-18T00:40:33.873Z,77.24
2022-12-18T00:43:02.860Z,77.55
2022-12-18T00:45:32.890Z,77.33
2022-12-18T00:48:01.918Z,77.40
2022-12-18T00:50:31.157Z,77.75
2022-12-18T00:53:02.692Z,77.90
2022-12-18T00:55:31.893Z,77.84
2022-12-18T00:58:01.335Z,77.28
2022-12-18T01:00:30.669Z,77.78
2022-12-18T01:02:59.426Z,77.86
2022-12-18T01:05:29.827Z,77.79
2022-12-18T01:07:59.023Z,77.75
2022-12-18T01:10:27.757Z,77.45
2022-12-18T01:12:59.773Z,77.21
2022-12-18T01:15:29.045Z,77.47
2022-12-18T01:17:57.739Z,77.19
2022-12-18T01:20:28.971Z,77.13
2022-12-18T01:22:58.291Z,77.43
2022-12-18T01:25:27.349Z,77.84
2022-12-18T01:27:56.221Z,77.75
2022-12-18T01:30:27.138Z,77.77
2022-12-18T01:32:56.154Z,77.79
2022-12-18T01:35:25.103Z,77.86
2022-12-18T01:37:59.377Z,77.76
2022-12-18T01:40:28.696Z,78.40
2022-12-18T01:42:57.841Z,78.10
2022-12-18T01:45:32.463Z,78.34
2022-12-18T01:48:08.301Z,78.01
2022-12-18T01:50:42.057Z,77.83
2022-12-18T01:53:22.901Z,78.02
2022-12-18T01:55:56.711Z,77.66
2022-12-18T01:58:58.676Z,77.60
2022-12-18T02:01:28.512Z,77.38
2022-12-18T02:03:57.677Z,77.40
2022-12-18T02:06:38.474Z,77.30
2022-12-18T02:09:21.556Z,77.72
2022-12-18T02:12:03.561Z,77.48
2022-12-18T02:14:41.279Z,77.91
2022-12-18T02:17:21.496Z,78.06
2022-12-18T02:20:00.764Z,78.16
2022-12-18T02:22:51.732Z,77.87
2022-12-18T02:25:44.815Z,78.16
2022-12-18T02:28:18.034Z,78.32
2022-12-18T02:30:53.609Z,78.43
2022-12-18T02:33:24.046Z,78.54
2022-12-18T02:35:55.859Z,78.12
2022-12-18T02:38:29.961Z,77.92
2022-12-18T02:41:04.091Z,77.76
2022-12-18T02:43:33.589Z,77.70
2022-12-18T02:46:30.700Z,77.47
2022-12-18T02:49:12.452Z,77.45
2022-12-18T02:51:52.497Z,77.80
2022-12-18T02:54:26.756Z,77.47
2022-12-18T02:56:58.168Z,77.61
2022-12-18T02:59:48.020Z,77.60
2022-12-18T03:02:40.531Z,77.63
2022-12-18T03:05:19.340Z,77.56
2022-12-18T03:07:58.754Z,77.81
2022-12-18T03:10:34.178Z,77.97
2022-12-18T03:13:32.657Z,77.32
2022-12-18T03:16:02.910Z,77.27
2022-12-18T03:18:54.325Z,77.39
2022-12-18T03:21:30.423Z,77.72
2022-12-18T03:24:00.605Z,77.97
2022-12-18T03:26:31.425Z,77.62
2022-12-18T03:29:09.374Z,78.02
2022-12-18T03:31:44.041Z,77.63
2022-12-18T03:34:24.130Z,77.45
2022-12-18T03:36:52.944Z,77.44
2022-12-18T03:39:22.122Z,77.81
2022-12-18T03:42:17.690Z,77.56
2022-12-18T03:45:04.661Z,77.63
2022-12-18T03:47:54.959Z,77.43
2022-12-18T03:50:42.804Z,76.92
2022-12-18T03:53:30.428Z,77.14
2022-12-18T03:56:02.517Z,77.32
2022-12-18T03:58:39.291Z,77.63
2022-12-18T04:01:37.326Z,77.39
2022-12-18T04:04:07.732Z,77.14
2022-12-18T04:06:40.588Z,76.90
2022-12-18T04:09:12.026Z,77.08
2022-12-18T04:11:46.127Z,77.28
2022-12-18T04:14:18.202Z,77.11
2022-12-18T04:16:51.495Z,77.21
2022-12-18T04:19:24.401Z,77.13
2022-12-18T04:21:54.829Z,77.31
2022-12-18T04:24:24.266Z,77.59
2022-12-18T04:27:09.052Z,77.33
2022-12-18T04:29:44.415Z,77.17
2022-12-18T04:32:12.982Z,76.76
2022-12-18T04:34:44.162Z,77.00
2022-12-18T04:37:13.134Z,76.86
2022-12-18T04:39:41.997Z,77.06
2022-12-18T04:42:19.398Z,77.15
2022-12-18T04:44:48.067Z,76.65
2022-12-18T04:47:16.881Z,77.07
2022-12-18T04:49:45.825Z,76.88
2022-12-18T04:52:14.519Z,77.17
2022-12-18T04:54:43.304Z,76.98
2022-12-18T04:57:12.004Z,76.55
2022-12-18T04:59:40.784Z,76.63
2022-12-18T05:02:09.449Z,76.79
2022-12-18T05:04:38.284Z,77.47
2022-12-18T05:07:07.524Z,76.95
2022-12-18T05:09:36.503Z,77.21
2022-12-18T05:12:05.385Z,77.47
2022-12-18T05:14:34.110Z,77.18
2022-12-18T05:17:02.849Z,76.69
2022-12-18T05:19:31.625Z,76.96
2022-12-18T05:22:00.602Z,77.18
2022-12-18T05:24:29.804Z,77.51
2022-12-18T05:26:58.609Z,77.17
2022-12-18T05:29:27.373Z,77.23
2022-12-18T05:31:56.016Z,77.31
2022-12-18T05:34:24.722Z,76.62
2022-12-18T05:36:53.720Z,76.81
2022-12-18T05:39:22.472Z,77.06
2022-12-18T05:41:51.519Z,77.51
2022-12-18T05:44:20.574Z,76.66
2022-12-18T05:46:49.401Z,77.48
2022-12-18T05:49:18.549Z,76.90
2022-12-18T05:51:47.948Z,77.76
2022-12-18T05:54:16.780Z,76.48
2022-12-18T05:56:48.625Z,77.74
2022-12-18T05:59:17.852Z,77.61
2022-12-18T06:01:46.988Z,77.11
2022-12-18T06:04:17.048Z,77.25
2022-12-18T06:06:45.810Z,77.16
2022-12-18T06:09:14.584Z,77.53
2022-12-18T06:11:43.406Z,77.30
2022-12-18T06:14:12.226Z,77.62
2022-12-18T06:16:41.277Z,77.24
2022-12-18T06:19:10.000Z,78.24
2022-12-18T06:21:39.017Z,77.88
2022-12-18T06:24:09.152Z,77.74
2022-12-18T06:26:41.797Z,77.98
2022-12-18T06:29:11.271Z,78.07
2022-12-18T06:31:40.041Z,77.32
2022-12-18T06:34:09.042Z,78.29
2022-12-18T06:36:38.107Z,78.17
2022-12-18T06:39:08.317Z,76.49
2022-12-18T06:41:38.426Z,77.73
2022-12-18T06:44:08.359Z,77.68
2022-12-18T06:46:38.081Z,77.10
2022-12-18T06:49:06.860Z,77.17
2022-12-18T06:51:35.690Z,77.29
2022-12-18T06:54:04.598Z,78.14
2022-12-18T06:56:33.444Z,78.25
2022-12-18T06:59:02.637Z,78.28
2022-12-18T07:01:31.715Z,77.14
2022-12-18T07:04:01.287Z,77.20
2022-12-18T07:06:30.001Z,77.09
2022-12-18T07:08:58.643Z,77.59
2022-12-18T07:11:27.428Z,78.01
2022-12-18T07:13:56.221Z,77.98
2022-12-18T07:16:25.986Z,78.42
2022-12-18T07:18:57.099Z,77.32
2022-12-18T07:21:26.703Z,78.15
2022-12-18T07:23:55.581Z,78.00
2022-12-18T07:26:25.319Z,78.31
2022-12-18T07:28:58.007Z,78.67
2022-12-18T07:31:27.778Z,77.70
2022-12-18T07:33:59.127Z,78.72
2022-12-18T07:36:27.930Z,78.43
2022-12-18T07:38:56.742Z,78.59
2022-12-18T07:41:25.680Z,78.04
2022-12-18T07:43:54.273Z,78.12
2022-12-18T07:46:23.183Z,78.00
2022-12-18T07:48:51.866Z,78.28
2022-12-18T07:51:20.964Z,78.01
2022-12-18T07:53:52.492Z,78.09
2022-12-18T07:56:30.787Z,78.39
2022-12-18T07:59:01.520Z,78.08
2022-12-18T08:01:30.308Z,78.36
2022-12-18T08:04:00.330Z,78.65
2022-12-18T08:06:29.033Z,78.16
2022-12-18T08:08:58.770Z,78.24
2022-12-18T08:11:29.199Z,78.21
2022-12-18T08:13:58.646Z,78.06
2022-12-18T08:16:27.712Z,78.18
2022-12-18T08:18:56.616Z,79.14
2022-12-18T08:21:28.397Z,78.93
2022-12-18T08:23:59.143Z,78.64
2022-12-18T08:26:30.982Z,78.31
2022-12-18T08:29:01.409Z,78.94
2022-12-18T08:31:31.805Z,78.36
2022-12-18T08:34:00.455Z,78.92
2022-12-18T08:36:29.347Z,78.58
2022-12-18T08:38:58.804Z,78.62
2022-12-18T08:41:28.141Z,79.44
2022-12-18T08:44:15.923Z,79.21
2022-12-18T08:46:46.155Z,79.07
2022-12-18T08:49:14.820Z,79.31
2022-12-18T08:51:43.804Z,78.93
2022-12-18T08:54:15.760Z,78.68
2022-12-18T08:56:44.751Z,78.41
2022-12-18T08:59:19.547Z,79.12
2022-12-18T09:01:52.614Z,79.15
2022-12-18T09:04:21.592Z,79.29
2022-12-18T09:06:50.881Z,78.74
2022-12-18T09:09:19.826Z,78.47
2022-12-18T09:11:48.910Z,78.98
2022-12-18T09:14:17.672Z,79.48
2022-12-18T09:16:46.719Z,79.32
2022-12-18T09:19:15.623Z,79.17
2022-12-18T09:21:48.000Z,78.85
2022-12-18T09:24:17.839Z,79.96
2022-12-18T09:26:47.401Z,78.87
2022-12-18T09:29:17.849Z,79.48
2022-12-18T09:31:48.408Z,79.55
2022-12-18T09:34:22.597Z,79.44
2022-12-18T09:36:52.447Z,79.94
2022-12-18T09:39:22.931Z,78.79
2022-12-18T09:41:59.794Z,79.28
2022-12-18T09:44:44.500Z,78.71
2022-12-18T09:47:26.035Z,79.23
2022-12-18T09:50:02.943Z,79.11
2022-12-18T09:52:49.459Z,79.71
2022-12-18T09:55:45.117Z,80.10
2022-12-18T09:58:34.036Z,79.03
2022-12-18T10:01:02.651Z,79.81
2022-12-18T10:03:31.590Z,79.76
2022-12-18T10:06:17.532Z,79.00
2022-12-18T10:09:35.368Z,79.22
2022-12-18T10:12:34.963Z,79.10
2022-12-18T10:15:15.707Z,79.49
2022-12-18T10:18:05.979Z,79.27
2022-12-18T10:20:51.211Z,79.89
2022-12-18T10:23:29.477Z,79.83
2022-12-18T10:26:10.146Z,80.25
2022-12-18T10:28:41.955Z,79.00
2022-12-18T10:31:19.879Z,79.13
2022-12-18T10:33:48.857Z,79.63
2022-12-18T10:36:17.714Z,79.76
2022-12-18T10:38:46.638Z,79.67
2022-12-18T10:41:23.736Z,80.16
2022-12-18T10:44:22.042Z,80.06
2022-12-18T10:47:00.082Z,79.78
2022-12-18T10:49:32.216Z,79.32
2022-12-18T10:52:08.296Z,79.34
2022-12-18T10:54:38.293Z,79.93
2022-12-18T10:57:18.474Z,80.07
2022-12-18T10:59:58.658Z,79.99
2022-12-18T11:02:37.920Z,80.23
2022-12-18T11:05:39.155Z,80.13
2022-12-18T11:08:22.054Z,79.32
2022-12-18T11:10:50.833Z,80.25
2022-12-18T11:13:28.635Z,80.10
2022-12-18T11:15:57.650Z,79.91
2022-12-18T11:18:36.514Z,79.44
2022-12-18T11:21:14.426Z,79.50
2022-12-18T11:23:49.192Z,80.03
2022-12-18T11:26:18.343Z,80.03
2022-12-18T11:28:53.555Z,79.91
2022-12-18T11:31:30.762Z,79.72
2022-12-18T11:36:57.546Z,79.38
2022-12-18T11:39:44.338Z,79.28
2022-12-18T11:42:22.033Z,78.95
2022-12-18T11:45:02.419Z,79.88
2022-12-18T11:47:46.342Z,78.87
2022-12-18T11:50:21.060Z,79.51
2022-12-18T11:52:55.647Z,79.02
2022-12-18T11:55:43.822Z,78.30
2022-12-18T11:58:22.575Z,78.71
2022-12-18T12:01:18.071Z,78.58
2022-12-18T12:04:06.510Z,78.90
2022-12-18T12:07:13.432Z,78.44
2022-12-18T12:10:16.382Z,78.49
2022-12-18T12:12:57.888Z,78.71
2022-12-18T12:15:47.951Z,78.86
2022-12-18T12:18:25.693Z,79.06
2022-12-18T12:21:08.628Z,79.84
2022-12-18T12:24:22.218Z,79.77
2022-12-18T12:27:16.232Z,79.48
2022-12-18T12:30:05.724Z,78.67
2022-12-18T12:33:01.920Z,78.75
2022-12-18T12:35:49.252Z,79.75
2022-12-18T12:38:52.506Z,78.73
2022-12-18T12:41:45.378Z,78.05
2022-12-18T12:44:22.933Z,78.45
2022-12-18T12:46:54.645Z,78.24
2022-12-18T12:49:27.991Z,77.94
2022-12-18T12:52:31.354Z,78.31
2022-12-18T12:55:02.968Z,78.93
2022-12-18T12:57:42.410Z,79.20
2022-12-18T13:00:17.896Z,78.76
2022-12-18T13:02:57.151Z,78.05
2022-12-18T13:05:48.172Z,78.94
2022-12-18T13:08:35.281Z,79.10
2022-12-18T13:11:23.625Z,78.39
2022-12-18T13:13:56.194Z,79.32
2022-12-18T13:16:27.373Z,79.04
2022-12-18T13:19:00.424Z,78.27
2022-12-18T13:21:34.329Z,79.09
2022-12-18T13:24:31.352Z,78.45
2022-12-18T13:27:00.653Z,79.05
2022-12-18T13:29:58.786Z,77.94
2022-12-18T13:32:28.379Z,78.79
2022-12-18T13:35:21.059Z,79.40
2022-12-18T13:37:56.513Z,79.21
2022-12-18T13:40:40.834Z,78.84
2022-12-18T13:43:22.759Z,78.86
2022-12-18T13:46:08.483Z,79.14
2022-12-18T13:48:40.610Z,78.54
2022-12-18T13:51:13.351Z,78.75
2022-12-18T13:53:50.723Z,79.37
2022-12-18T13:56:23.545Z,78.36
2022-12-18T13:59:13.644Z,78.45
2022-12-18T14:01:58.305Z,78.61
2022-12-18T14:04:40.023Z,79.50
2022-12-18T14:07:20.121Z,78.82
2022-12-18T14:10:42.190Z,78.24
2022-12-18T14:13:03.299Z,79.03
2022-12-18T14:15:36.840Z,78.12
2022-12-18T14:18:27.644Z,79.48
2022-12-18T14:21:02.028Z,79.58
2022-12-18T14:23:38.301Z,79.51
2022-12-18T14:26:24.395Z,78.92
2022-12-18T14:28:53.734Z,78.79
2022-12-18T14:31:25.797Z,78.85
2022-12-18T14:33:55.435Z,79.58
2022-12-18T14:36:29.503Z,78.81
2022-12-18T14:39:00.119Z,79.35
2022-12-18T14:41:30.570Z,78.46
2022-12-18T14:44:09.470Z,79.32
2022-12-18T14:46:40.883Z,79.22
2022-12-18T14:49:33.446Z,79.05
2022-12-18T14:52:28.491Z,79.08
2022-12-18T14:54:57.463Z,78.83
2022-12-18T14:57:33.258Z,79.57
2022-12-18T15:00:18.739Z,78.86
2022-12-18T15:02:56.980Z,78.88
2022-12-18T15:05:32.472Z,79.01
2022-12-18T15:08:03.868Z,79.32
2022-12-18T15:10:35.468Z,79.15
2022-12-18T15:13:05.033Z,79.14
2022-12-18T15:15:39.961Z,79.39
2022-12-18T15:18:14.655Z,79.13
2022-12-18T15:20:54.344Z,79.57
2022-12-18T15:23:28.399Z,80.21
2022-12-18T15:26:03.146Z,79.90
2022-12-18T15:28:37.025Z,80.02
2022-12-18T15:31:18.145Z,80.17
2022-12-18T15:34:04.859Z,80.04
2022-12-18T15:36:37.917Z,79.27
2022-12-18T15:39:07.066Z,79.63
2022-12-18T15:41:37.375Z,79.60
2022-12-18T15:44:25.311Z,79.83
2022-12-18T15:46:54.454Z,79.40
2022-12-18T15:49:23.158Z,79.64
2022-12-18T15:51:58.847Z,79.35
2022-12-18T15:54:46.706Z,79.92
2022-12-18T15:57:24.834Z,79.75
2022-12-18T15:59:55.855Z,80.04
2022-12-18T16:02:25.157Z,80.36
2022-12-18T16:04:55.566Z,79.88
2022-12-18T16:07:25.574Z,79.85
2022-12-18T16:09:57.196Z,79.92
2022-12-18T16:12:27.424Z,79.64
2022-12-18T16:14:56.186Z,80.29
2022-12-18T16:17:24.945Z,80.27
2022-12-18T16:19:56.125Z,80.08
2022-12-18T16:22:30.006Z,80.32
2022-12-18T16:24:59.924Z,80.33
2022-12-18T16:27:28.644Z,79.78
2022-12-18T16:29:57.494Z,79.94
2022-12-18T16:32:26.173Z,79.86
2022-12-18T16:34:54.976Z,79.69
2022-12-18T16:37:23.646Z,80.34
2022-12-18T16:39:52.305Z,79.71
2022-12-18T16:42:22.340Z,80.37
2022-12-18T16:44:51.905Z,80.40
2022-12-18T16:47:20.919Z,79.93
2022-12-18T16:49:53.684Z,80.34
2022-12-18T16:52:22.881Z,80.26
2022-12-18T16:54:51.706Z,80.54
2022-12-18T16:57:25.172Z,80.35
2022-12-18T16:59:55.481Z,80.51
2022-12-18T17:02:28.337Z,80.36
2022-12-18T17:04:58.920Z,79.82
2022-12-18T17:07:29.067Z,80.30
2022-12-18T17:09:58.040Z,80.32
2022-12-18T17:12:27.678Z,80.33
2022-12-18T17:14:56.301Z,80.87
2022-12-18T17:17:25.181Z,80.39
2022-12-18T17:19:54.119Z,80.65
2022-12-18T17:22:24.058Z,80.76
2022-12-18T17:24:54.018Z,80.56
2022-12-18T17:27:23.295Z,80.81
2022-12-18T17:29:52.036Z,80.30
2022-12-18T17:32:20.758Z,80.69
2022-12-18T17:34:49.757Z,80.72
2022-12-18T17:37:18.723Z,80.65
2022-12-18T17:39:47.483Z,80.83
2022-12-18T17:42:16.647Z,80.85
2022-12-18T17:44:46.057Z,80.88
2022-12-18T17:47:15.287Z,80.70
2022-12-18T17:49:45.058Z,80.92
2022-12-18T17:52:13.833Z,80.62
2022-12-18T17:54:44.877Z,80.68
2022-12-18T17:57:14.106Z,80.98
2022-12-18T17:59:42.955Z,81.36
2022-12-18T18:02:13.191Z,80.89
2022-12-18T18:04:43.045Z,81.38
2022-12-18T18:07:12.412Z,81.24
2022-12-18T18:09:41.820Z,80.67
2022-12-18T18:12:29.643Z,81.36
2022-12-18T18:14:59.682Z,81.41
2022-12-18T18:17:28.669Z,81.97
2022-12-18T18:19:57.829Z,81.80
2022-12-18T18:22:27.008Z,81.34
2022-12-18T18:24:56.291Z,82.01
2022-12-18T18:27:25.246Z,81.27
2022-12-18T18:29:55.657Z,81.19
2022-12-18T18:32:24.767Z,81.32
2022-12-18T18:34:56.244Z,81.53
2022-12-18T18:37:25.098Z,81.50
2022-12-18T18:39:54.284Z,81.56
2022-12-18T18:42:23.991Z,81.79
2022-12-18T18:44:52.878Z,81.44
2022-12-18T18:47:22.978Z,81.79
2022-12-18T18:49:52.397Z,81.79
2022-12-18T18:52:21.542Z,81.90
2022-12-18T18:55:11.613Z,81.39
2022-12-18T18:57:40.535Z,82.06
2022-12-18T19:00:10.481Z,82.14
2022-12-18T19:02:42.231Z,82.01
2022-12-18T19:05:11.242Z,81.37
2022-12-18T19:07:42.975Z,82.02
2022-12-18T19:10:11.860Z,82.36
2022-12-18T19:12:58.831Z,81.56
2022-12-18T19:15:27.860Z,82.44
2022-12-18T19:17:57.208Z,82.89
2022-12-18T19:20:29.735Z,82.46
2022-12-18T19:22:59.063Z,82.61
2022-12-18T19:25:38.395Z,82.38
2022-12-18T19:28:15.983Z,81.90
2022-12-18T19:30:51.434Z,82.25
2022-12-18T19:33:43.120Z,82.43
2022-12-18T19:36:27.103Z,81.85
2022-12-18T19:38:58.978Z,82.01
2022-12-18T19:41:31.264Z,82.52
2022-12-18T19:44:08.185Z,82.37
2022-12-18T19:46:40.581Z,82.58
2022-12-18T19:49:17.336Z,82.95
2022-12-18T19:51:46.869Z,82.29
2022-12-18T19:54:17.384Z,82.25
2022-12-18T19:56:47.736Z,82.42
2022-12-18T19:59:16.764Z,83.06
2022-12-18T20:01:45.945Z,82.65
2022-12-18T20:04:15.080Z,82.38
2022-12-18T20:06:52.587Z,83.29
2022-12-18T20:09:22.901Z,83.71
2022-12-18T20:11:52.881Z,82.25
2022-12-18T20:14:23.452Z,83.33
2022-12-18T20:16:53.458Z,82.73
2022-12-18T20:19:23.467Z,82.92
2022-12-18T20:21:53.047Z,82.66
2022-12-18T20:24:21.860Z,82.54
2022-12-18T20:26:50.958Z,83.83
2022-12-18T20:29:19.598Z,82.97
2022-12-18T20:31:48.541Z,83.35
2022-12-18T20:34:17.359Z,83.82
2022-12-18T20:36:47.109Z,83.48
2022-12-18T20:39:18.404Z,83.35
2022-12-18T20:41:47.944Z,84.44
2022-12-18T20:44:23.193Z,83.56
2022-12-18T20:46:59.914Z,84.37
2022-12-18T20:49:31.679Z,84.22
2022-12-18T20:52:00.604Z,84.21
2022-12-18T20:54:29.421Z,83.64
2022-12-18T20:56:58.581Z,83.18
2022-12-18T20:59:27.401Z,83.40
2022-12-18T21:01:56.707Z,83.87
2022-12-18T21:04:26.507Z,84.07
2022-12-18T21:07:00.774Z,83.83
2022-12-18T21:09:37.173Z,84.11
2022-12-18T21:12:40.328Z,84.11
2022-12-18T21:15:13.883Z,84.82
2022-12-18T21:17:45.106Z,85.07
2022-12-18T21:20:17.787Z,84.90
2022-12-18T21:22:49.982Z,85.64
2022-12-18T21:25:18.819Z,84.25
2022-12-18T21:27:47.634Z,83.91
2022-12-18T21:30:16.382Z,84.33
2022-12-18T21:32:45.321Z,85.13
2022-12-18T21:35:14.428Z,84.69
2022-12-18T21:37:43.872Z,84.96
2022-12-18T21:40:12.967Z,83.96
2022-12-18T21:43:00.130Z,84.30
2022-12-18T21:45:28.745Z,84.45
2022-12-18T21:47:57.677Z,85.05
2022-12-18T21:50:27.039Z,84.63
2022-12-18T21:52:56.279Z,84.78
2022-12-18T21:55:25.390Z,85.39
2022-12-18T21:57:55.178Z,84.79
2022-12-18T22:00:24.140Z,85.78
2022-12-18T22:03:07.380Z,84.46
2022-12-18T22:05:42.518Z,85.02
2022-12-18T22:08:11.226Z,85.40
2022-12-18T22:10:40.963Z,85.11
2022-12-18T22:13:09.930Z,85.16
2022-12-18T22:15:38.609Z,85.80
2022-12-18T22:18:07.981Z,84.51
2022-12-18T22:20:36.680Z,85.07
2022-12-18T22:23:05.995Z,84.97
2022-12-18T22:25:39.274Z,85.59
2022-12-18T22:28:26.916Z,84.59
2022-12-18T22:30:59.291Z,85.62
2022-12-18T22:33:29.062Z,85.22
2022-12-18T22:35:57.996Z,84.67
2022-12-18T22:38:26.773Z,84.27
2022-12-18T22:40:56.228Z,84.65
2022-12-18T22:43:25.419Z,85.53
2022-12-18T22:45:54.139Z,84.73
2022-12-18T22:48:23.199Z,85.00
2022-12-18T22:50:51.786Z,85.01
2022-12-18T22:53:26.188Z,84.45
2022-12-18T22:56:02.641Z,84.47
2022-12-18T22:58:31.726Z,84.73
2022-12-18T23:01:00.838Z,84.58
2022-12-18T23:03:30.671Z,85.21
2022-12-18T23:06:10.611Z,85.06
2022-12-18T23:08:39.285Z,85.81
2022-12-18T23:11:08.844Z,84.40
2022-12-18T23:13:38.265Z,84.62
2022-12-18T23:16:15.620Z,84.33
2022-12-18T23:18:45.582Z,84.60
2022-12-18T23:21:19.409Z,85.82
2022-12-18T23:23:49.213Z,85.41
2022-12-18T23:26:20.874Z,84.97
2022-12-18T23:28:51.375Z,85.84
2022-12-18T23:31:24.469Z,84.69
2022-12-18T23:33:55.028Z,84.84
2022-12-18T23:36:24.421Z,85.58
2022-12-18T23:38:59.537Z,85.01
2022-12-18T23:41:31.088Z,85.65
2022-12-18T23:44:01.287Z,84.93
2022-12-18T23:46:33.703Z,85.64
2022-12-18T23:49:04.230Z,84.87
2022-12-18T23:51:35.480Z,84.34
2022-12-18T23:54:05.536Z,85.45
2022-12-18T23:56:36.717Z,85.89
2022-12-18T23:59:05.370Z,84.81
